5R8

De Quincy Industrial Airpark

De Quincy, Louisiana, USA
METAR K5R8 260555Z AUTO 31008KT 10SM OVC045 19/14 A2997 RMK AO2 T01900135 10251 20190 402910113
Observed Flight Rules
Apr-26 @ 05:55 UTC (8 minutes ago) Visual Flight Rules
Wind Visibility Clouds
310° at 8 knots 10 miles
  • Overcast at 4,500' AGL
Temperatures Readings
Current 19°C / 66°F
Dewpoint 14°C / 57°F
Humidity 73%
Altimeter 29.97" Hg
Pressure 1015 hPa
Elevation 24
METAR K5R8 260555Z AUTO 31008KT 10SM OVC045 19/14 A2997 RMK AO2 T01900135 10251 20190 402910113
Observed Flight Rules
Apr-26 @ 05:55 UTC
(8 minutes ago)
VFR
Wind Visibility
310° at 8 knots 10 miles
Clouds
  • Overcast at 4,500' AGL
Temperature Dewpoint
19°C / 66°F 14°C / 57°F
Humidity Altimeter Pressure
73% 29.97" Hg 1015 hPa